createdAt,value
2022-12-11T00:01:10.691Z,58.27
2022-12-11T00:03:01.641Z,54.30
2022-12-11T00:04:48.794Z,86.22
2022-12-11T00:06:36.014Z,70.45
2022-12-11T00:08:23.335Z,56.22
2022-12-11T00:10:10.391Z,68.32
2022-12-11T00:11:57.595Z,68.55
2022-12-11T00:13:44.942Z,80.80
2022-12-11T00:15:32.130Z,83.40
2022-12-11T00:17:19.159Z,68.53
2022-12-11T00:19:06.600Z,65.75
2022-12-11T00:20:53.776Z,66.85
2022-12-11T00:22:40.846Z,67.50
2022-12-11T00:24:28.103Z,58.58
2022-12-11T00:26:16.119Z,54.43
2022-12-11T00:28:03.156Z,59.90
2022-12-11T00:29:50.494Z,67.72
2022-12-11T00:31:37.501Z,61.58
2022-12-11T00:33:27.093Z,63.43
2022-12-11T00:35:14.369Z,61.40
2022-12-11T00:37:01.549Z,58.97
2022-12-11T00:38:49.749Z,62.53
2022-12-11T00:40:37.697Z,53.90
2022-12-11T00:42:24.743Z,62.05
2022-12-11T00:44:11.798Z,68.00
2022-12-11T00:45:59.059Z,67.32
2022-12-11T00:47:46.120Z,57.42
2022-12-11T00:49:33.189Z,70.00
2022-12-11T00:51:20.553Z,68.68
2022-12-11T00:53:07.581Z,71.73
2022-12-11T00:54:54.683Z,70.47
2022-12-11T00:56:41.964Z,64.13
2022-12-11T00:58:29.161Z,66.20
2022-12-11T01:00:16.483Z,66.80
2022-12-11T01:02:03.776Z,64.03
2022-12-11T01:03:51.584Z,43.00
2022-12-11T01:05:39.746Z,60.25
2022-12-11T01:07:27.315Z,60.05
2022-12-11T01:09:33.121Z,63.70
2022-12-11T01:11:20.995Z,60.35
2022-12-11T01:13:08.334Z,59.67
2022-12-11T01:14:55.367Z,57.87
2022-12-11T01:16:42.495Z,62.17
2022-12-11T01:18:29.809Z,61.05
2022-12-11T01:20:18.082Z,62.30
2022-12-11T01:22:05.056Z,64.55
2022-12-11T01:23:52.545Z,67.47
2022-12-11T01:25:39.807Z,68.45
2022-12-11T01:27:26.882Z,62.08
2022-12-11T01:29:14.154Z,63.50
2022-12-11T01:31:01.496Z,70.17
2022-12-11T01:32:48.818Z,68.60
2022-12-11T01:34:36.095Z,75.70
2022-12-11T01:36:23.870Z,81.20
2022-12-11T01:38:10.989Z,77.82
2022-12-11T01:39:58.307Z,61.95
2022-12-11T01:41:45.286Z,54.22
2022-12-11T01:43:32.707Z,61.00
2022-12-11T01:45:27.360Z,56.90
2022-12-11T01:47:14.477Z,60.53
2022-12-11T01:49:04.405Z,57.42
2022-12-11T01:50:55.166Z,61.03
2022-12-11T01:52:44.647Z,54.97
2022-12-11T01:54:31.848Z,59.83
2022-12-11T01:56:19.450Z,55.67
2022-12-11T01:58:07.836Z,59.63
2022-12-11T01:59:55.432Z,54.33
2022-12-11T02:01:45.164Z,63.25
2022-12-11T02:03:35.434Z,59.20
2022-12-11T02:05:22.531Z,57.22
2022-12-11T02:07:10.355Z,54.42
2022-12-11T02:08:57.645Z,59.60
2022-12-11T02:10:50.260Z,59.92
2022-12-11T02:12:45.952Z,55.45
2022-12-11T02:14:49.044Z,59.72
2022-12-11T02:16:43.871Z,56.63
2022-12-11T02:18:47.679Z,62.10
2022-12-11T02:20:58.065Z,55.25
2022-12-11T02:23:13.164Z,58.30
2022-12-11T02:25:54.598Z,61.80
2022-12-11T02:27:48.536Z,63.25
2022-12-11T02:29:43.542Z,59.10
2022-12-11T02:31:41.512Z,59.08
2022-12-11T02:33:43.966Z,57.00
2022-12-11T02:35:38.358Z,62.88
2022-12-11T02:37:30.060Z,56.53
2022-12-11T02:39:18.636Z,53.17
2022-12-11T02:41:08.530Z,49.13
2022-12-11T02:42:57.940Z,45.08
2022-12-11T02:44:46.679Z,52.72
2022-12-11T02:46:35.611Z,50.88
2022-12-11T02:48:24.281Z,53.20
2022-12-11T02:50:15.018Z,53.30
2022-12-11T02:52:04.823Z,56.60
2022-12-11T02:53:56.981Z,56.13
2022-12-11T02:55:45.226Z,64.00
2022-12-11T02:57:40.415Z,63.20
2022-12-11T02:59:33.121Z,68.18
2022-12-11T03:01:20.217Z,66.93
2022-12-11T03:03:07.794Z,72.57
2022-12-11T03:04:57.297Z,72.65
2022-12-11T03:06:51.345Z,71.07
2022-12-11T03:08:38.666Z,70.88
2022-12-11T03:10:25.868Z,64.17
2022-12-11T03:12:17.548Z,63.53
2022-12-11T03:14:06.867Z,59.20
2022-12-11T03:16:28.861Z,61.35
2022-12-11T03:18:23.643Z,62.33
2022-12-11T03:20:13.260Z,61.03
2022-12-11T03:22:16.895Z,64.65
2022-12-11T03:24:22.781Z,60.78
2022-12-11T03:26:13.589Z,68.35
2022-12-11T03:28:20.700Z,63.33
2022-12-11T03:30:12.787Z,64.03
2022-12-11T03:32:05.878Z,60.67
2022-12-11T03:33:55.559Z,61.45
2022-12-11T03:35:47.024Z,56.72
2022-12-11T03:37:37.443Z,66.43
2022-12-11T03:39:36.195Z,63.00
2022-12-11T03:41:26.917Z,65.35
2022-12-11T03:43:16.267Z,56.55
2022-12-11T03:45:04.945Z,63.60
2022-12-11T03:46:53.863Z,69.85
2022-12-11T03:48:44.782Z,67.40
2022-12-11T03:50:34.028Z,63.55
2022-12-11T03:52:22.281Z,58.75
2022-12-11T03:55:59.176Z,124.97
2022-12-11T03:57:46.508Z,95.45
2022-12-11T03:59:33.651Z,250.97
2022-12-11T04:01:20.906Z,159.32
2022-12-11T04:03:14.373Z,132.63
2022-12-11T04:05:01.948Z,147.13
2022-12-11T04:06:48.861Z,106.22
2022-12-11T04:08:36.123Z,90.03
2022-12-11T04:10:23.241Z,96.70
2022-12-11T04:12:10.225Z,79.60
2022-12-11T04:14:23.793Z,82.72
2022-12-11T04:16:10.907Z,67.38
2022-12-11T04:18:16.424Z,58.05
2022-12-11T04:20:23.832Z,68.63
2022-12-11T04:22:32.966Z,67.25
2022-12-11T04:24:20.499Z,64.95
2022-12-11T04:26:10.605Z,69.05
2022-12-11T04:27:57.679Z,67.25
2022-12-11T04:29:44.649Z,65.63
2022-12-11T04:31:32.140Z,69.25
2022-12-11T04:33:19.219Z,65.17
2022-12-11T04:35:08.507Z,64.80
2022-12-11T04:36:56.331Z,60.83
2022-12-11T04:38:43.443Z,70.30
2022-12-11T04:40:30.343Z,65.50
2022-12-11T04:42:17.635Z,49.58
2022-12-11T04:44:05.276Z,45.58
2022-12-11T04:46:08.416Z,65.75
2022-12-11T04:47:55.696Z,64.03
2022-12-11T04:49:42.904Z,62.23
2022-12-11T04:51:29.842Z,62.38
2022-12-11T04:53:17.198Z,61.15
2022-12-11T04:55:06.485Z,63.37
2022-12-11T04:56:53.420Z,65.05
2022-12-11T04:58:41.834Z,65.75
2022-12-11T05:00:28.911Z,62.65
2022-12-11T05:02:16.419Z,48.77
2022-12-11T05:05:53.262Z,58.10
2022-12-11T05:07:41.138Z,56.05
2022-12-11T05:11:16.228Z,60.05
2022-12-11T05:13:03.237Z,58.95
2022-12-11T05:14:54.476Z,60.40
2022-12-11T05:16:41.466Z,60.80
2022-12-11T05:18:28.393Z,62.63
2022-12-11T05:20:15.830Z,65.88
2022-12-11T05:22:02.896Z,64.97
2022-12-11T05:23:49.883Z,63.03
2022-12-11T05:25:37.238Z,69.28
2022-12-11T05:27:24.463Z,67.17
2022-12-11T05:29:11.484Z,62.17
2022-12-11T05:31:01.558Z,63.72
2022-12-11T05:32:48.684Z,60.92
2022-12-11T05:34:36.434Z,56.70
2022-12-11T05:36:27.131Z,64.53
2022-12-11T05:38:14.320Z,62.42
2022-12-11T05:40:01.492Z,56.70
2022-12-11T05:41:48.744Z,55.90
2022-12-11T05:43:36.573Z,61.13
2022-12-11T05:45:23.520Z,63.78
2022-12-11T05:47:11.089Z,49.72
2022-12-11T05:49:00.797Z,63.20
2022-12-11T05:51:01.809Z,67.05
2022-12-11T05:52:49.236Z,65.82
2022-12-11T05:54:36.331Z,57.00
2022-12-11T05:56:28.775Z,63.28
2022-12-11T05:58:16.186Z,61.78
2022-12-11T06:00:05.676Z,63.67
2022-12-11T06:01:52.776Z,62.20
2022-12-11T06:03:40.169Z,60.47
2022-12-11T06:05:27.244Z,61.95
2022-12-11T06:07:14.196Z,66.47
2022-12-11T06:09:02.643Z,67.57
2022-12-11T06:10:50.467Z,64.72
2022-12-11T06:14:24.772Z,63.13
2022-12-11T06:16:12.111Z,65.28
2022-12-11T06:17:59.143Z,60.25
2022-12-11T06:19:46.486Z,62.70
2022-12-11T06:21:34.032Z,60.60
2022-12-11T06:23:21.222Z,68.60
2022-12-11T06:25:09.823Z,57.25
2022-12-11T06:26:57.204Z,61.70
2022-12-11T06:28:44.858Z,62.53
2022-12-11T06:30:38.362Z,67.20
2022-12-11T06:32:27.127Z,104.18
2022-12-11T06:34:14.358Z,105.35
2022-12-11T06:36:03.287Z,141.68
2022-12-11T06:37:50.405Z,153.20
2022-12-11T06:39:37.568Z,116.75
2022-12-11T06:41:25.218Z,85.97
2022-12-11T06:43:12.398Z,181.90
2022-12-11T06:44:59.936Z,141.75
2022-12-11T06:48:35.312Z,57.03
2022-12-11T06:52:12.523Z,115.82
2022-12-11T06:54:03.893Z,126.22
2022-12-11T06:55:51.121Z,101.95
2022-12-11T06:57:38.412Z,88.78
2022-12-11T06:59:25.537Z,86.37
2022-12-11T07:01:20.188Z,84.65
2022-12-11T07:03:07.693Z,84.07
2022-12-11T07:04:55.342Z,76.13
2022-12-11T07:08:30.224Z,68.88
2022-12-11T07:10:17.576Z,67.00
2022-12-11T07:12:05.258Z,61.05
2022-12-11T07:13:52.716Z,61.75
2022-12-11T07:15:40.642Z,63.73
2022-12-11T07:17:29.518Z,55.92
2022-12-11T07:19:16.999Z,65.32
2022-12-11T07:21:05.561Z,63.35
2022-12-11T07:22:54.710Z,56.85
2022-12-11T07:24:42.117Z,58.90
2022-12-11T07:26:31.569Z,63.55
2022-12-11T07:28:22.158Z,56.65
2022-12-11T07:30:10.743Z,63.40
2022-12-11T07:31:58.061Z,55.80
2022-12-11T07:33:45.494Z,60.38
2022-12-11T07:35:35.310Z,64.97
2022-12-11T07:37:22.399Z,60.28
2022-12-11T07:39:12.184Z,64.40
2022-12-11T07:41:05.486Z,62.40
2022-12-11T07:42:52.678Z,59.67
2022-12-11T07:44:39.808Z,47.05
2022-12-11T07:46:30.330Z,59.17
2022-12-11T07:48:17.521Z,57.72
2022-12-11T07:50:04.948Z,56.70
2022-12-11T07:51:52.341Z,68.88
2022-12-11T07:53:39.607Z,73.05
2022-12-11T07:55:26.801Z,51.22
2022-12-11T07:57:14.533Z,64.13
2022-12-11T07:59:03.775Z,65.78
2022-12-11T08:00:52.076Z,57.78
2022-12-11T08:02:39.551Z,57.90
2022-12-11T08:04:27.028Z,61.85
2022-12-11T08:06:14.656Z,63.85
2022-12-11T08:09:49.209Z,95.07
2022-12-11T08:11:36.966Z,58.93
2022-12-11T08:15:11.743Z,56.65
2022-12-11T08:17:00.255Z,59.00
2022-12-11T08:18:48.088Z,55.58
2022-12-11T08:20:37.339Z,62.20
2022-12-11T08:22:24.454Z,54.45
2022-12-11T08:24:11.863Z,53.13
2022-12-11T08:25:59.171Z,60.67
2022-12-11T08:27:46.214Z,58.58
2022-12-11T08:29:34.384Z,55.67
2022-12-11T08:31:21.896Z,53.65
2022-12-11T08:33:09.000Z,53.92
2022-12-11T08:34:57.046Z,50.35
2022-12-11T08:36:44.416Z,51.13
2022-12-11T08:38:31.939Z,52.33
2022-12-11T08:40:19.137Z,73.40
2022-12-11T08:42:07.294Z,53.75
2022-12-11T08:43:57.631Z,48.40
2022-12-11T08:45:46.055Z,49.17
2022-12-11T08:47:33.198Z,62.03
2022-12-11T08:49:20.619Z,48.78
2022-12-11T08:51:10.903Z,45.10
2022-12-11T08:52:58.314Z,50.00
2022-12-11T08:54:45.722Z,53.33
2022-12-11T08:56:32.910Z,50.97
2022-12-11T08:58:20.146Z,44.47
2022-12-11T09:00:13.988Z,44.92
2022-12-11T09:02:01.484Z,43.47
2022-12-11T09:03:49.327Z,45.65
2022-12-11T09:05:38.855Z,43.63
2022-12-11T09:07:26.580Z,49.15
2022-12-11T09:09:13.947Z,46.00
2022-12-11T09:11:06.290Z,47.63
2022-12-11T09:12:53.633Z,45.40
2022-12-11T09:14:40.912Z,45.15
2022-12-11T09:16:29.440Z,43.63
2022-12-11T09:18:16.603Z,47.92
2022-12-11T09:20:04.974Z,51.17
2022-12-11T09:21:52.402Z,83.90
2022-12-11T09:23:40.585Z,49.10
2022-12-11T09:25:27.724Z,42.92
2022-12-11T09:27:15.222Z,47.13
2022-12-11T09:29:04.613Z,54.97
2022-12-11T09:30:52.362Z,51.50
2022-12-11T09:32:39.863Z,43.22
2022-12-11T09:34:29.492Z,45.05
2022-12-11T09:36:17.002Z,41.72
2022-12-11T09:38:04.450Z,42.33
2022-12-11T09:39:51.458Z,45.55
2022-12-11T09:41:58.952Z,47.95
2022-12-11T09:44:25.312Z,52.05
2022-12-11T09:46:14.803Z,43.33
2022-12-11T09:48:02.997Z,51.65
2022-12-11T09:49:55.003Z,61.17
2022-12-11T09:51:51.924Z,61.08
2022-12-11T09:53:39.721Z,46.47
2022-12-11T09:55:34.163Z,54.70
2022-12-11T09:57:50.613Z,66.45
2022-12-11T10:00:13.936Z,59.42
2022-12-11T10:02:04.351Z,46.00
2022-12-11T10:04:18.259Z,42.75
2022-12-11T10:06:22.714Z,48.03
2022-12-11T10:08:23.679Z,56.97
2022-12-11T10:10:20.520Z,51.33
2022-12-11T10:12:19.259Z,47.70
2022-12-11T10:14:25.354Z,60.90
2022-12-11T10:16:31.332Z,90.80
2022-12-11T10:18:23.132Z,93.35
2022-12-11T10:20:29.362Z,76.38
2022-12-11T10:22:23.364Z,55.00
2022-12-11T10:25:07.629Z,51.72
2022-12-11T10:26:40.174Z,42.30
2022-12-11T10:28:28.122Z,33.90
2022-12-11T10:30:34.308Z,38.00
2022-12-11T10:32:25.359Z,38.28
2022-12-11T10:34:17.436Z,46.03
2022-12-11T10:36:07.903Z,45.03
2022-12-11T10:38:09.493Z,35.80
2022-12-11T10:39:56.638Z,41.72
2022-12-11T10:41:46.680Z,44.13
2022-12-11T10:43:43.369Z,40.75
2022-12-11T10:45:30.631Z,38.65
2022-12-11T10:47:19.139Z,45.28
2022-12-11T10:49:07.347Z,46.75
2022-12-11T10:51:04.551Z,53.30
2022-12-11T10:52:53.152Z,50.85
2022-12-11T10:54:43.685Z,50.72
2022-12-11T10:56:33.520Z,49.72
2022-12-11T10:58:24.437Z,44.58
2022-12-11T11:01:03.057Z,42.63
2022-12-11T11:02:50.291Z,37.00
2022-12-11T11:04:42.257Z,34.33
2022-12-11T11:06:29.659Z,34.83
2022-12-11T11:08:21.525Z,41.25
2022-12-11T11:10:11.845Z,39.22
2022-12-11T11:12:01.911Z,35.00
2022-12-11T11:14:17.763Z,40.30
2022-12-11T11:16:09.908Z,36.22
2022-12-11T11:18:04.224Z,31.10
2022-12-11T11:19:51.486Z,34.65
2022-12-11T11:21:53.139Z,30.77
2022-12-11T11:23:45.478Z,32.38
2022-12-11T11:25:34.966Z,33.28
2022-12-11T11:27:41.333Z,27.73
2022-12-11T11:29:34.418Z,31.05
2022-12-11T11:31:31.414Z,35.47
2022-12-11T11:33:21.071Z,36.97
2022-12-11T11:35:18.875Z,41.20
2022-12-11T11:37:06.216Z,35.38
2022-12-11T11:39:20.962Z,33.20
2022-12-11T11:41:15.496Z,29.35
2022-12-11T11:43:41.411Z,26.88
2022-12-11T11:45:52.839Z,29.65
2022-12-11T11:48:07.759Z,28.90
2022-12-11T11:50:29.778Z,23.42
2022-12-11T11:52:29.391Z,24.80
2022-12-11T11:54:28.333Z,24.23
2022-12-11T11:56:26.212Z,27.02
2022-12-11T11:58:23.208Z,24.95
2022-12-11T12:00:31.735Z,24.40
2022-12-11T12:02:21.113Z,29.90
2022-12-11T12:04:08.581Z,32.53
2022-12-11T12:06:00.927Z,30.98
2022-12-11T12:08:01.984Z,48.22
2022-12-11T12:10:07.119Z,31.55
2022-12-11T12:12:04.847Z,30.75
2022-12-11T12:14:50.609Z,35.75
2022-12-11T12:16:56.111Z,33.53
2022-12-11T12:19:01.685Z,28.55
2022-12-11T12:21:05.318Z,32.42
2022-12-11T12:23:34.923Z,30.48
2022-12-11T12:25:43.762Z,32.75
2022-12-11T12:29:59.308Z,33.30
2022-12-11T12:32:20.490Z,30.67
2022-12-11T12:34:29.930Z,30.02
2022-12-11T12:36:31.594Z,33.47
2022-12-11T12:38:44.306Z,30.05
2022-12-11T12:40:43.849Z,29.30
2022-12-11T12:42:49.534Z,28.02
2022-12-11T12:44:51.733Z,29.15
2022-12-11T12:47:24.640Z,35.72
2022-12-11T12:49:40.725Z,30.88
2022-12-11T12:51:29.084Z,39.95
2022-12-11T12:53:30.618Z,37.35
2022-12-11T12:55:27.328Z,33.45
2022-12-11T12:57:14.818Z,38.70
2022-12-11T12:59:02.196Z,51.25
2022-12-11T13:00:49.603Z,58.17
2022-12-11T13:02:50.378Z,60.22
2022-12-11T13:04:58.264Z,64.30
2022-12-11T13:06:47.425Z,75.47
2022-12-11T13:08:48.347Z,60.05
2022-12-11T13:10:39.047Z,51.30
2022-12-11T13:12:43.480Z,52.58
2022-12-11T13:14:32.611Z,56.13
2022-12-11T13:16:20.064Z,50.45
2022-12-11T13:18:31.141Z,51.90
2022-12-11T13:20:24.491Z,60.25
2022-12-11T13:22:17.125Z,69.35
2022-12-11T13:24:13.782Z,64.68
2022-12-11T13:26:03.525Z,64.15
2022-12-11T13:27:51.008Z,65.72
2022-12-11T13:29:41.434Z,78.05
2022-12-11T13:31:40.238Z,67.85
2022-12-11T13:33:30.147Z,56.45
2022-12-11T13:35:18.304Z,70.78
2022-12-11T13:37:07.407Z,70.43
2022-12-11T13:39:02.662Z,69.82
2022-12-11T13:40:56.331Z,78.53
2022-12-11T13:43:07.013Z,64.78
2022-12-11T13:44:54.685Z,56.00
2022-12-11T13:46:44.213Z,52.58
2022-12-11T13:48:43.999Z,48.83
2022-12-11T13:50:33.222Z,50.65
2022-12-11T13:52:25.900Z,49.38
2022-12-11T13:54:17.545Z,55.08
2022-12-11T13:56:07.741Z,46.47
2022-12-11T13:57:55.132Z,48.42
2022-12-11T13:59:47.839Z,58.45
2022-12-11T14:01:35.726Z,51.28
2022-12-11T14:05:13.457Z,55.90
2022-12-11T14:07:02.021Z,60.80
2022-12-11T14:08:52.925Z,57.08
2022-12-11T14:10:40.598Z,56.80
2022-12-11T14:12:30.250Z,54.28
2022-12-11T14:14:35.508Z,61.55
2022-12-11T14:16:25.236Z,60.53
2022-12-11T14:18:20.885Z,64.78
2022-12-11T14:20:23.249Z,66.43
2022-12-11T14:22:20.015Z,59.38
2022-12-11T14:24:12.721Z,53.42
2022-12-11T14:26:15.690Z,49.60
2022-12-11T14:28:03.860Z,47.25
2022-12-11T14:29:51.473Z,48.03
2022-12-11T14:31:43.299Z,48.80
2022-12-11T14:33:49.012Z,51.72
2022-12-11T14:35:41.797Z,52.20
2022-12-11T14:37:29.087Z,44.20
2022-12-11T14:39:28.281Z,44.95
2022-12-11T14:41:37.138Z,47.97
2022-12-11T14:43:31.798Z,38.75
2022-12-11T14:45:30.743Z,38.05
2022-12-11T14:47:25.348Z,38.15
2022-12-11T14:49:30.117Z,37.17
2022-12-11T14:51:19.495Z,42.90
2022-12-11T14:53:21.146Z,42.00
2022-12-11T14:55:25.188Z,45.25
2022-12-11T14:57:29.014Z,43.00
2022-12-11T14:59:25.508Z,36.65
2022-12-11T15:01:36.447Z,44.65
2022-12-11T15:03:26.105Z,46.42
2022-12-11T15:05:19.226Z,47.45
2022-12-11T15:07:21.640Z,48.80
2022-12-11T15:09:36.225Z,47.35
2022-12-11T15:11:25.170Z,44.97
2022-12-11T15:13:16.809Z,48.55
2022-12-11T15:15:07.531Z,47.55
2022-12-11T15:16:57.449Z,48.75
2022-12-11T15:18:49.401Z,50.83
2022-12-11T15:20:37.127Z,45.03
2022-12-11T15:22:30.919Z,52.30
2022-12-11T15:24:29.322Z,52.97
2022-12-11T15:26:17.023Z,49.97
2022-12-11T15:28:04.231Z,52.35
2022-12-11T15:29:51.700Z,49.15
2022-12-11T15:31:39.013Z,50.63
2022-12-11T15:33:29.721Z,49.95
2022-12-11T15:35:23.564Z,49.35
2022-12-11T15:37:32.984Z,50.42
2022-12-11T15:39:20.136Z,49.80
2022-12-11T15:41:14.507Z,39.83
2022-12-11T15:43:03.422Z,50.03
2022-12-11T15:44:51.036Z,47.47
2022-12-11T15:46:38.325Z,51.20
2022-12-11T15:48:25.721Z,48.22
2022-12-11T15:50:17.332Z,49.60
2022-12-11T15:52:04.633Z,51.67
2022-12-11T15:53:52.121Z,51.85
2022-12-11T15:55:39.719Z,55.88
2022-12-11T15:57:28.271Z,49.42
2022-12-11T15:59:16.483Z,46.33
2022-12-11T16:01:04.209Z,43.75
2022-12-11T16:02:52.694Z,42.75
2022-12-11T16:04:43.374Z,42.88
2022-12-11T16:06:30.640Z,44.00
2022-12-11T16:08:20.947Z,39.42
2022-12-11T16:10:13.407Z,39.33
2022-12-11T16:12:00.594Z,49.28
2022-12-11T16:13:47.756Z,43.13
2022-12-11T16:15:37.793Z,44.22
2022-12-11T16:17:25.374Z,44.40
2022-12-11T16:19:12.554Z,43.22
2022-12-11T16:21:05.745Z,36.80
2022-12-11T16:22:52.878Z,30.73
2022-12-11T16:24:40.856Z,26.95
2022-12-11T16:26:28.342Z,32.67
2022-12-11T16:28:18.243Z,33.60
2022-12-11T16:30:05.838Z,32.17
2022-12-11T16:33:40.376Z,33.00
2022-12-11T16:35:29.842Z,34.55
2022-12-11T16:37:17.319Z,36.30
2022-12-11T16:39:04.794Z,40.72
2022-12-11T16:41:01.029Z,38.25
2022-12-11T16:42:52.057Z,41.72
2022-12-11T16:44:43.881Z,40.03
2022-12-11T16:46:31.494Z,40.50
2022-12-11T16:48:18.919Z,43.20
2022-12-11T16:50:06.540Z,43.42
2022-12-11T16:55:28.891Z,41.00
2022-12-11T16:57:16.341Z,51.65
2022-12-11T16:59:04.686Z,54.58
2022-12-11T17:00:52.019Z,48.78
2022-12-11T17:02:40.064Z,48.60
2022-12-11T17:04:28.709Z,57.42
2022-12-11T17:06:17.765Z,58.65
2022-12-11T17:08:05.078Z,57.20
2022-12-11T17:09:53.444Z,55.80
2022-12-11T17:11:40.902Z,63.90
2022-12-11T17:13:31.718Z,50.75
2022-12-11T17:15:23.303Z,52.05
2022-12-11T17:17:10.570Z,54.53
2022-12-11T17:18:58.587Z,52.92
2022-12-11T17:20:46.083Z,55.95
2022-12-11T17:22:33.520Z,59.20
2022-12-11T17:24:20.693Z,56.83
2022-12-11T17:26:11.460Z,53.15
2022-12-11T17:27:58.546Z,50.85
2022-12-11T17:29:47.592Z,44.75
2022-12-11T17:31:35.165Z,47.47
2022-12-11T17:33:22.847Z,44.40
2022-12-11T17:35:11.292Z,43.40
2022-12-11T17:36:58.970Z,49.35
2022-12-11T17:38:46.476Z,36.58
2022-12-11T17:40:33.816Z,43.75
2022-12-11T17:42:21.248Z,53.47
2022-12-11T17:44:09.091Z,64.05
2022-12-11T17:45:56.350Z,73.32
2022-12-11T17:47:43.806Z,60.10
2022-12-11T17:49:31.061Z,56.05
2022-12-11T17:51:24.061Z,52.38
2022-12-11T17:53:14.558Z,62.58
2022-12-11T17:55:03.143Z,56.55
2022-12-11T17:56:51.439Z,55.70
2022-12-11T17:58:39.132Z,52.05
2022-12-11T18:00:31.554Z,46.20
2022-12-11T18:02:20.646Z,46.58
2022-12-11T18:04:08.149Z,49.00
2022-12-11T18:05:57.165Z,42.00
2022-12-11T18:07:44.287Z,45.40
2022-12-11T18:09:32.217Z,44.63
2022-12-11T18:11:21.773Z,53.05
2022-12-11T18:13:09.726Z,57.08
2022-12-11T18:15:01.549Z,51.58
2022-12-11T18:16:48.793Z,45.42
2022-12-11T18:18:35.957Z,47.13
2022-12-11T18:20:23.308Z,47.13
2022-12-11T18:22:11.056Z,49.67
2022-12-11T18:23:58.872Z,51.55
2022-12-11T18:25:46.310Z,53.75
2022-12-11T18:27:33.551Z,51.00
2022-12-11T18:29:20.662Z,53.03
2022-12-11T18:31:09.751Z,55.58
2022-12-11T18:32:56.889Z,58.53
2022-12-11T18:34:44.036Z,68.10
2022-12-11T18:36:32.173Z,56.35
2022-12-11T18:40:07.768Z,59.58
2022-12-11T18:42:30.559Z,55.80
2022-12-11T18:44:09.280Z,63.25
2022-12-11T18:45:57.254Z,57.35
2022-12-11T18:47:44.669Z,57.38
2022-12-11T18:49:31.980Z,68.15
2022-12-11T18:51:24.075Z,75.32
2022-12-11T18:53:11.924Z,68.07
2022-12-11T18:54:59.045Z,73.57
2022-12-11T18:56:46.210Z,64.22
2022-12-11T18:58:33.701Z,70.97
2022-12-11T19:00:22.186Z,61.00
2022-12-11T19:02:11.176Z,67.05
2022-12-11T19:04:05.316Z,64.30
2022-12-11T19:05:53.687Z,67.25
2022-12-11T19:07:40.899Z,65.70
2022-12-11T19:09:28.327Z,65.85
2022-12-11T19:11:18.083Z,66.35
2022-12-11T19:13:05.292Z,65.75
2022-12-11T19:14:52.996Z,67.65
2022-12-11T19:16:42.748Z,64.75
2022-12-11T19:18:29.916Z,67.68
2022-12-11T19:20:48.622Z,66.68
2022-12-11T19:22:24.787Z,64.80
2022-12-11T19:24:19.642Z,66.80
2022-12-11T19:26:12.768Z,63.90
2022-12-11T19:28:00.159Z,68.55
2022-12-11T19:29:48.148Z,66.65
2022-12-11T19:31:36.897Z,65.10
2022-12-11T19:33:24.812Z,67.28
2022-12-11T19:35:14.436Z,72.75
2022-12-11T19:37:04.367Z,70.88
2022-12-11T19:38:57.966Z,69.95
2022-12-11T19:42:36.633Z,67.57
2022-12-11T19:44:24.225Z,66.60
2022-12-11T19:46:12.953Z,64.45
2022-12-11T19:48:01.227Z,83.32
2022-12-11T19:49:48.936Z,72.13
2022-12-11T19:51:40.002Z,65.85
2022-12-11T19:53:30.356Z,68.70
2022-12-11T19:55:19.798Z,70.40
2022-12-11T19:57:10.374Z,70.50
2022-12-11T19:59:00.803Z,78.93
2022-12-11T20:00:48.899Z,75.18
2022-12-11T20:02:36.612Z,75.32
2022-12-11T20:04:24.133Z,77.43
2022-12-11T20:06:13.730Z,76.38
2022-12-11T20:08:20.477Z,114.25
2022-12-11T20:10:09.561Z,96.28
2022-12-11T20:11:56.826Z,90.43
2022-12-11T20:13:46.136Z,91.43
2022-12-11T20:15:33.813Z,85.53
2022-12-11T20:17:22.053Z,85.55
2022-12-11T20:19:11.251Z,77.63
2022-12-11T20:21:01.451Z,79.13
2022-12-11T20:22:55.819Z,69.63
2022-12-11T20:24:43.936Z,71.55
2022-12-11T20:26:32.801Z,79.13
2022-12-11T20:28:21.057Z,70.32
2022-12-11T20:30:10.837Z,70.20
2022-12-11T20:32:00.957Z,64.72
2022-12-11T20:33:50.053Z,78.57
2022-12-11T20:35:41.632Z,75.72
2022-12-11T20:37:29.747Z,82.28
2022-12-11T20:39:17.983Z,76.22
2022-12-11T20:41:08.454Z,67.53
2022-12-11T20:42:56.453Z,75.97
2022-12-11T20:44:49.148Z,89.43
2022-12-11T20:46:39.763Z,80.22
2022-12-11T20:48:28.698Z,72.22
2022-12-11T20:50:16.541Z,62.45
2022-12-11T20:52:04.487Z,71.05
2022-12-11T20:53:59.335Z,75.10
2022-12-11T20:55:47.649Z,61.78
2022-12-11T20:57:35.109Z,66.75
2022-12-11T20:59:23.548Z,67.68
2022-12-11T21:01:17.014Z,57.38
2022-12-11T21:03:05.828Z,57.92
2022-12-11T21:04:53.573Z,94.80
2022-12-11T21:06:42.186Z,82.18
2022-12-11T21:08:29.845Z,72.38
2022-12-11T21:12:05.656Z,63.65
2022-12-11T21:13:54.890Z,69.78
2022-12-11T21:15:43.296Z,63.00
2022-12-11T21:17:31.013Z,62.78
2022-12-11T21:19:20.397Z,61.45
2022-12-11T21:21:08.962Z,63.67
2022-12-11T21:22:57.706Z,63.85
2022-12-11T21:24:45.142Z,62.38
2022-12-11T21:26:33.405Z,70.38
2022-12-11T21:28:21.080Z,62.42
2022-12-11T21:31:57.915Z,64.38
2022-12-11T21:33:46.649Z,56.65
2022-12-11T21:35:34.642Z,59.30
2022-12-11T21:37:22.225Z,56.53
2022-12-11T21:39:09.347Z,55.92
2022-12-11T21:40:57.000Z,59.60
2022-12-11T21:42:45.194Z,62.53
2022-12-11T21:48:27.893Z,62.33
2022-12-11T21:50:15.092Z,58.10
2022-12-11T21:52:02.811Z,56.13
2022-12-11T21:55:40.387Z,58.50
2022-12-11T21:57:27.732Z,57.03
2022-12-11T21:59:15.728Z,53.92
2022-12-11T22:01:04.602Z,48.50
2022-12-11T22:02:52.066Z,57.20
2022-12-11T22:04:39.539Z,60.28
2022-12-11T22:06:27.146Z,57.45
2022-12-11T22:08:14.424Z,58.83
2022-12-11T22:10:02.167Z,58.08
2022-12-11T22:11:50.645Z,59.88
2022-12-11T22:13:40.806Z,54.17
2022-12-11T22:15:28.144Z,56.00
2022-12-11T22:17:15.523Z,46.00
2022-12-11T22:19:02.825Z,57.63
2022-12-11T22:20:50.308Z,51.42
2022-12-11T22:22:37.617Z,53.65
2022-12-11T22:24:24.694Z,50.53
2022-12-11T22:26:21.634Z,55.78
2022-12-11T22:28:08.674Z,61.85
2022-12-11T22:29:55.788Z,64.13
2022-12-11T22:31:43.143Z,61.17
2022-12-11T22:33:30.282Z,62.65
2022-12-11T22:35:20.975Z,69.90
2022-12-11T22:37:11.435Z,65.63
2022-12-11T22:39:00.325Z,55.45
2022-12-11T22:40:47.578Z,59.65
2022-12-11T22:42:35.157Z,62.92
2022-12-11T22:44:22.186Z,72.22
2022-12-11T22:46:15.424Z,71.72
2022-12-11T22:48:02.821Z,64.97
2022-12-11T22:49:49.991Z,72.10
2022-12-11T22:51:38.291Z,97.55
2022-12-11T22:53:25.774Z,89.20
2022-12-11T22:55:14.870Z,77.35
2022-12-11T22:57:02.056Z,58.38
2022-12-11T22:58:49.259Z,57.97
2022-12-11T23:00:36.485Z,55.50
2022-12-11T23:02:24.271Z,55.97
2022-12-11T23:04:11.933Z,50.58
2022-12-11T23:06:03.426Z,55.65
2022-12-11T23:07:52.455Z,47.75
2022-12-11T23:09:40.036Z,52.38
2022-12-11T23:11:31.126Z,47.08
2022-12-11T23:13:18.144Z,48.85
2022-12-11T23:15:06.789Z,49.90
2022-12-11T23:16:54.316Z,50.20
2022-12-11T23:18:41.684Z,42.78
2022-12-11T23:20:29.173Z,51.15
2022-12-11T23:22:16.655Z,49.65
2022-12-11T23:24:04.280Z,49.38
2022-12-11T23:27:38.559Z,59.50
2022-12-11T23:29:25.594Z,63.47
2022-12-11T23:31:13.497Z,52.15
2022-12-11T23:33:00.725Z,58.92
2022-12-11T23:34:47.743Z,60.58
2022-12-11T23:36:35.160Z,60.10
2022-12-11T23:38:22.135Z,60.45
2022-12-11T23:40:10.004Z,53.67
2022-12-11T23:41:57.402Z,58.13
2022-12-11T23:43:44.613Z,62.22
2022-12-11T23:45:31.650Z,49.08
2022-12-11T23:47:18.975Z,47.80
2022-12-11T23:49:06.007Z,53.85
2022-12-11T23:50:57.944Z,54.93
2022-12-11T23:52:45.424Z,51.05
2022-12-11T23:54:32.503Z,52.67
2022-12-11T23:56:22.739Z,49.90
2022-12-11T23:58:10.919Z,46.33
